createdAt,value
2017-11-25T09:48:00.553Z,85.56
2017-11-25T09:48:26.042Z,84.33
2017-11-25T09:48:51.547Z,83.75
2017-11-25T09:49:17.092Z,83.42
2017-11-25T09:49:42.528Z,82.86
2017-11-25T09:50:08.005Z,82.67
2017-11-25T09:50:33.493Z,82.28
2017-11-25T09:50:59.031Z,82.38
2017-11-25T09:51:24.495Z,81.9
2017-11-25T09:51:49.975Z,81.9
2017-11-25T09:52:15.408Z,81.33
2017-11-25T09:52:40.903Z,81.62
2017-11-25T09:53:06.401Z,81.58
2017-11-25T09:53:31.861Z,81.77
2017-11-25T09:53:57.360Z,81.77
2017-11-25T09:54:22.870Z,82.24
2017-11-25T09:54:48.331Z,81.77
2017-11-25T09:55:13.852Z,82.43
2017-11-25T09:55:39.319Z,82.53
2017-11-25T09:56:04.804Z,83.15
2017-11-25T09:56:30.260Z,82.87
2017-11-25T09:56:55.745Z,82.96
2017-11-25T09:57:21.232Z,83.34
2017-11-25T09:57:46.726Z,83.06
2017-11-25T09:58:12.206Z,83.25
2017-11-25T09:58:37.674Z,83.53
2017-11-25T09:59:03.151Z,84.01
2017-11-25T09:59:28.634Z,84.01
2017-11-25T09:59:54.120Z,83.72
2017-11-25T10:00:19.636Z,84.1
2017-11-25T10:00:45.066Z,84.29
2017-11-25T10:01:10.606Z,84.63
2017-11-25T10:01:36.120Z,84.53
2017-11-25T10:02:01.628Z,85.11
2017-11-25T10:02:27.166Z,85.58
2017-11-25T10:02:52.612Z,85.11
2017-11-25T10:03:18.102Z,85.11
2017-11-25T10:03:43.582Z,85.39
2017-11-25T10:04:09.045Z,85.3
2017-11-25T10:04:34.521Z,85.11
2017-11-25T10:04:59.979Z,85.2
2017-11-25T10:05:25.452Z,85.2
2017-11-25T10:05:50.936Z,85.3
2017-11-25T10:06:16.430Z,85.58
2017-11-25T10:06:41.946Z,85.3
2017-11-25T10:07:07.410Z,85.77
2017-11-25T10:07:32.923Z,85.3
2017-11-25T10:07:58.419Z,85.49
2017-11-25T10:08:23.911Z,85.86
2017-11-25T10:08:49.397Z,86.05
2017-11-25T10:09:14.883Z,86.15
2017-11-25T10:09:40.369Z,85.96
2017-11-25T10:10:05.841Z,85.77
2017-11-25T10:10:31.322Z,85.96
2017-11-25T10:10:56.790Z,86.15
2017-11-25T10:11:22.264Z,86.34
2017-11-25T10:11:47.773Z,86.63
2017-11-25T10:12:13.226Z,87.01
2017-11-25T10:12:38.695Z,87.05
2017-11-25T10:13:04.170Z,87.34
2017-11-25T10:13:29.624Z,87.34
2017-11-25T10:13:55.080Z,86.77
2017-11-25T10:14:20.548Z,87.43
2017-11-25T10:14:45.974Z,86.96
2017-11-25T10:15:11.493Z,87.53
2017-11-25T10:15:36.915Z,87.53
2017-11-25T10:16:02.432Z,87.24
2017-11-25T10:16:27.912Z,87.34
2017-11-25T10:16:53.344Z,87.34
2017-11-25T10:17:18.854Z,87.43
2017-11-25T10:17:44.286Z,87.24
2017-11-25T10:18:42.304Z,87.24
2017-11-25T10:19:07.770Z,87.43
2017-11-25T10:19:33.241Z,87.24
2017-11-25T10:19:58.722Z,88.01
2017-11-25T10:20:24.199Z,87.82
2017-11-25T10:20:49.690Z,88.01
2017-11-25T10:21:15.133Z,87.53
2017-11-25T10:21:40.641Z,87.91
2017-11-25T10:22:06.120Z,88.2
2017-11-25T10:22:31.622Z,87.91
2017-11-25T10:22:57.084Z,88.2
2017-11-25T10:23:22.606Z,88.39
2017-11-25T10:23:48.137Z,88.39
2017-11-25T10:24:13.554Z,88.39
2017-11-25T10:25:23.072Z,87.82
2017-11-25T10:25:48.572Z,88.1
2017-11-25T10:26:14.054Z,88.1
2017-11-25T10:26:39.642Z,88.2
2017-11-25T10:27:05.124Z,88.48
2017-11-25T10:27:30.578Z,88.29
2017-11-25T10:27:56.040Z,88.67
2017-11-25T10:28:21.535Z,88.86
2017-11-25T10:28:47.033Z,89.24
2017-11-25T10:29:12.496Z,89.14
2017-11-25T10:29:38.003Z,89.24
2017-11-25T10:30:03.587Z,88.86
2017-11-25T10:30:29.083Z,88.95
2017-11-25T10:30:54.580Z,89.05
2017-11-25T10:31:20.069Z,89.05
2017-11-25T10:31:45.603Z,88.76
2017-11-25T10:32:11.080Z,88.86
2017-11-25T10:32:36.558Z,88.86
2017-11-25T10:33:02.033Z,88.95
2017-11-25T10:33:27.514Z,88.86
2017-11-25T10:33:53.011Z,89.33
2017-11-25T10:34:18.467Z,89.14
2017-11-25T10:34:43.946Z,88.76
2017-11-25T10:35:09.488Z,88.86
2017-11-25T10:35:34.963Z,88.76
2017-11-25T10:36:00.420Z,88.76
2017-11-25T10:36:25.964Z,88.57
2017-11-25T10:36:51.516Z,88.48
2017-11-25T10:37:16.992Z,88.95
2017-11-25T10:37:42.446Z,88.86
2017-11-25T10:38:07.976Z,88.95
2017-11-25T10:38:33.498Z,88.39
2017-11-25T10:38:58.973Z,88.57
2017-11-25T10:39:24.526Z,88.57
2017-11-25T10:39:50.037Z,88.76
2017-11-25T10:40:15.667Z,88.86
2017-11-25T10:40:41.127Z,88.95
2017-11-25T10:41:06.636Z,88.86
2017-11-25T10:41:32.150Z,89.05
2017-11-25T10:41:57.708Z,89.33
2017-11-25T10:42:23.225Z,89.53
2017-11-25T10:42:48.730Z,89.33
2017-11-25T10:43:14.287Z,89.9
2017-11-25T10:43:39.920Z,89.53
2017-11-25T10:44:05.340Z,89.53
2017-11-25T10:44:30.843Z,89.62
2017-11-25T10:44:56.347Z,89.72
2017-11-25T10:45:21.856Z,89.05
2017-11-25T10:45:47.339Z,89.24
2017-11-25T10:46:12.830Z,88.86
2017-11-25T10:46:38.309Z,88.76
2017-11-25T10:47:03.775Z,88.86
2017-11-25T10:47:29.254Z,88.76
2017-11-25T10:47:54.724Z,88.95
2017-11-25T10:48:20.225Z,88.86
2017-11-25T10:48:45.738Z,89.14
2017-11-25T10:49:11.254Z,88.86
2017-11-25T10:49:36.729Z,89.24
2017-11-25T10:50:02.225Z,88.86
2017-11-25T10:50:27.742Z,89.05
2017-11-25T10:50:53.236Z,89.05
2017-11-25T10:51:18.720Z,89.53
2017-11-25T10:51:44.223Z,89.62
2017-11-25T10:52:09.736Z,89.43
2017-11-25T10:52:35.230Z,89.62
2017-11-25T10:53:00.754Z,89.62
2017-11-25T10:53:26.251Z,90.19
2017-11-25T10:53:51.756Z,89.53
2017-11-25T10:54:17.201Z,90.09
2017-11-25T10:54:42.704Z,89.62
2017-11-25T10:55:08.207Z,89.43
2017-11-25T10:55:33.732Z,89.53
2017-11-25T10:55:59.206Z,89.53
2017-11-25T10:56:24.654Z,90.19
2017-11-25T10:56:50.170Z,89.81
2017-11-25T10:57:15.686Z,89.9
2017-11-25T10:57:41.166Z,89.81
2017-11-25T10:58:06.709Z,89.43
2017-11-25T10:58:32.193Z,89.53
2017-11-25T10:58:57.753Z,89.43
2017-11-25T10:59:23.273Z,89.43
2017-11-25T10:59:48.763Z,89.72
2017-11-25T11:00:14.276Z,89.24
2017-11-25T11:00:39.754Z,89.24
2017-11-25T11:01:05.263Z,89.43
2017-11-25T11:01:30.931Z,89.62
2017-11-25T11:01:56.430Z,89.53
2017-11-25T11:02:21.964Z,89.43
2017-11-25T11:02:47.425Z,89.24
2017-11-25T11:03:13.002Z,89.43
2017-11-25T11:03:38.562Z,89.43
2017-11-25T11:04:04.093Z,89.62
2017-11-25T11:04:29.616Z,89.43
2017-11-25T11:04:55.126Z,89.43
2017-11-25T11:05:20.720Z,89.62
2017-11-25T11:05:46.230Z,89.14
2017-11-25T11:06:11.764Z,88.86
2017-11-25T11:06:37.276Z,88.57
2017-11-25T11:07:02.775Z,88.29
2017-11-25T11:07:28.285Z,88.01
2017-11-25T11:07:53.798Z,88.2
2017-11-25T11:08:19.258Z,88.01
2017-11-25T11:08:44.725Z,88.01
2017-11-25T11:09:10.199Z,88.2
2017-11-25T11:09:35.662Z,87.53
2017-11-25T11:10:01.182Z,87.15
2017-11-25T11:10:26.660Z,87.15
2017-11-25T11:10:52.123Z,87.15
2017-11-25T11:11:17.647Z,87.05
2017-11-25T11:11:43.172Z,87.24
2017-11-25T11:12:08.621Z,87.34
2017-11-25T11:12:34.159Z,87.34
2017-11-25T11:12:59.656Z,87.34
2017-11-25T11:13:25.198Z,87.24
2017-11-25T11:13:50.718Z,87.43
2017-11-25T11:14:16.226Z,87.53
2017-11-25T11:14:41.766Z,87.72
2017-11-25T11:15:07.247Z,87.91
2017-11-25T11:15:32.736Z,88.01
2017-11-25T11:15:58.281Z,88.39
2017-11-25T11:16:23.767Z,88.39
2017-11-25T11:16:49.292Z,88.29
2017-11-25T11:17:14.819Z,88.39
2017-11-25T11:17:40.321Z,88.2
2017-11-25T11:18:05.815Z,88.01
2017-11-25T11:18:31.284Z,88.01
2017-11-25T11:18:56.737Z,88.1
2017-11-25T11:19:22.233Z,87.82
2017-11-25T11:19:47.712Z,88.1
2017-11-25T11:20:13.179Z,88.29
2017-11-25T11:20:38.674Z,87.82
2017-11-25T11:21:04.148Z,87.91
2017-11-25T11:21:29.652Z,88.67
2017-11-25T11:21:55.135Z,88.39
2017-11-25T11:22:20.590Z,88.57
2017-11-25T11:22:46.051Z,88.57
2017-11-25T11:23:11.502Z,88.39
2017-11-25T11:23:36.991Z,88.48
2017-11-25T11:24:02.464Z,88.39
2017-11-25T11:24:27.947Z,88.57
2017-11-25T11:24:53.453Z,88.95
2017-11-25T11:25:18.972Z,88.57
2017-11-25T11:25:44.443Z,88.67
2017-11-25T11:26:09.941Z,88.57
2017-11-25T11:26:35.431Z,88.57
2017-11-25T11:27:00.919Z,88.86
2017-11-25T11:27:26.362Z,88.57
2017-11-25T11:27:51.827Z,88.48
2017-11-25T11:28:17.308Z,88.48
2017-11-25T11:28:42.806Z,88.57
2017-11-25T11:29:08.295Z,88.39
2017-11-25T11:29:33.837Z,88.67
2017-11-25T11:29:59.294Z,88.39
2017-11-25T11:30:24.756Z,88.67
2017-11-25T11:30:50.224Z,88.76
2017-11-25T11:31:15.714Z,88.01
2017-11-25T11:31:41.220Z,88.29
2017-11-25T11:32:06.709Z,88.1
2017-11-25T11:32:32.155Z,88.39
2017-11-25T11:32:57.634Z,88.01
2017-11-25T11:33:23.133Z,88.01
2017-11-25T11:33:48.594Z,88.1
2017-11-25T11:34:14.089Z,88.67
2017-11-25T11:34:39.602Z,88.01
2017-11-25T11:35:05.081Z,88.1
2017-11-25T11:35:30.507Z,88.29
2017-11-25T11:35:56.009Z,87.62
2017-11-25T11:36:21.465Z,87.43
2017-11-25T11:36:46.939Z,88.29
2017-11-25T11:37:12.447Z,87.91
2017-11-25T11:37:37.915Z,88.29
2017-11-25T11:38:03.369Z,87.82
2017-11-25T11:38:28.869Z,88.01
2017-11-25T11:38:54.378Z,88.01
2017-11-25T11:39:19.860Z,87.82
2017-11-25T11:39:45.298Z,87.53
2017-11-25T11:40:10.831Z,87.24
2017-11-25T11:40:36.297Z,87.53
2017-11-25T11:41:01.844Z,87.43
2017-11-25T11:41:27.300Z,87.15
2017-11-25T11:41:52.768Z,87.34
2017-11-25T11:42:18.235Z,88.01
2017-11-25T11:42:43.734Z,87.82
2017-11-25T11:43:47.332Z,87.53
2017-11-25T11:44:12.812Z,87.72
2017-11-25T11:44:38.278Z,87.82
2017-11-25T11:45:03.789Z,87.62
2017-11-25T11:45:29.261Z,87.82
2017-11-25T11:45:54.709Z,87.62
2017-11-25T11:46:20.191Z,87.72
2017-11-25T11:46:45.648Z,87.91
2017-11-25T11:47:11.127Z,88.29
2017-11-25T11:47:36.597Z,88.01
2017-11-25T11:48:02.045Z,88.1
2017-11-25T11:48:27.494Z,88.01
2017-11-25T11:48:53.007Z,88.29
2017-11-25T11:49:18.450Z,88.1
2017-11-25T11:49:43.902Z,87.72
2017-11-25T11:50:09.392Z,88.1
2017-11-25T11:50:34.829Z,87.72
2017-11-25T11:51:00.326Z,87.24
2017-11-25T11:51:25.812Z,87.34
2017-11-25T11:51:51.300Z,87.34
2017-11-25T11:52:16.789Z,87.72
2017-11-25T11:52:42.260Z,88.1
2017-11-25T11:53:07.803Z,88.2
2017-11-25T11:53:33.267Z,88.39
2017-11-25T11:53:58.747Z,87.82
2017-11-25T11:54:24.203Z,87.62
2017-11-25T11:54:49.658Z,87.15
2017-11-25T11:55:15.141Z,87.05
2017-11-25T11:55:40.613Z,86.77
2017-11-25T11:56:06.177Z,86.96
2017-11-25T11:56:31.636Z,87.05
2017-11-25T11:56:57.136Z,86.58
2017-11-25T11:57:22.619Z,86.3
2017-11-25T11:57:48.166Z,86.49
2017-11-25T11:58:13.643Z,86.96
2017-11-25T11:58:39.111Z,87.05
2017-11-25T11:59:04.613Z,86.49
2017-11-25T11:59:30.122Z,86.39
2017-11-25T11:59:55.566Z,87.05
2017-11-25T12:00:21.031Z,87.15
2017-11-25T12:00:46.546Z,87.15
2017-11-25T12:01:12.032Z,87.62
2017-11-25T12:01:37.515Z,87.91
2017-11-25T12:02:03.015Z,87.72
2017-11-25T12:02:28.482Z,87.72
2017-11-25T12:02:54.025Z,88.1
2017-11-25T12:03:19.536Z,88.2
2017-11-25T12:03:45.001Z,88.1
2017-11-25T12:04:10.515Z,88.72
2017-11-25T12:04:36.011Z,88.39
2017-11-25T12:05:01.482Z,88.57
2017-11-25T12:05:26.958Z,88.43
2017-11-25T12:05:52.414Z,88.34
2017-11-25T12:06:17.874Z,88.72
2017-11-25T12:06:43.401Z,88.72
2017-11-25T12:07:08.912Z,88.91
2017-11-25T12:07:34.342Z,88.62
2017-11-25T12:07:59.864Z,88.81
2017-11-25T12:08:25.280Z,89.2
2017-11-25T12:08:50.738Z,88.72
2017-11-25T12:09:16.229Z,88.72
2017-11-25T12:09:41.717Z,88.81
2017-11-25T12:10:07.206Z,88.72
2017-11-25T12:10:32.702Z,88.34
2017-11-25T12:10:58.194Z,88.53
2017-11-25T12:11:23.681Z,88.62
2017-11-25T12:11:49.288Z,88.81
2017-11-25T12:12:14.736Z,88.81
2017-11-25T12:12:40.234Z,88.53
2017-11-25T12:13:05.763Z,88.81
2017-11-25T12:13:31.246Z,88.81
2017-11-25T12:13:56.681Z,89.2
2017-11-25T12:14:22.178Z,89.2
2017-11-25T12:14:47.630Z,88.81
2017-11-25T12:15:13.128Z,88.72
2017-11-25T12:15:38.626Z,89.2
2017-11-25T12:16:04.089Z,88.72
2017-11-25T12:16:29.604Z,89.29
2017-11-25T12:16:55.099Z,89
2017-11-25T12:17:20.609Z,89.1
2017-11-25T12:17:46.043Z,89.1
2017-11-25T12:18:11.568Z,89
2017-11-25T12:18:37.038Z,89.29
2017-11-25T12:19:02.532Z,89.2
2017-11-25T12:19:27.998Z,89.58
2017-11-25T12:19:53.495Z,89
2017-11-25T12:20:18.980Z,89.39
2017-11-25T12:20:44.435Z,89.48
2017-11-25T12:21:09.951Z,89.39
2017-11-25T12:21:35.421Z,89.67
2017-11-25T12:22:00.907Z,89.39
2017-11-25T12:22:26.421Z,89.58
2017-11-25T12:22:51.854Z,89.48
2017-11-25T12:23:17.339Z,89.58
2017-11-25T12:23:42.816Z,89.58
2017-11-25T12:24:08.362Z,89.39
2017-11-25T12:24:33.867Z,89.29
2017-11-25T12:24:59.436Z,89.39
2017-11-25T12:25:24.864Z,89.48
2017-11-25T12:25:50.400Z,89.39
2017-11-25T12:26:15.878Z,89.67
2017-11-25T12:26:41.574Z,88.72
2017-11-25T12:27:07.038Z,89
2017-11-25T12:27:32.639Z,89.2
2017-11-25T12:27:58.186Z,89
2017-11-25T12:28:23.636Z,88.91
2017-11-25T12:28:49.313Z,88.91
2017-11-25T12:29:14.898Z,88.53
2017-11-25T12:29:40.375Z,89.58
2017-11-25T12:30:05.921Z,89.48
2017-11-25T12:30:31.487Z,89.58
2017-11-25T12:30:57.051Z,89.67
2017-11-25T12:31:22.675Z,89.48
2017-11-25T12:31:48.187Z,89.58
2017-11-25T12:32:13.870Z,89.58
2017-11-25T12:32:39.349Z,89.48
2017-11-25T12:33:04.803Z,89
2017-11-25T12:33:30.312Z,88.81
2017-11-25T12:33:55.982Z,89.29
2017-11-25T12:34:21.441Z,89
2017-11-25T12:34:46.939Z,89
2017-11-25T12:35:12.376Z,88.81
2017-11-25T12:35:37.977Z,89.1
2017-11-25T12:36:03.579Z,89
2017-11-25T12:36:29.134Z,89.2
2017-11-25T12:36:54.928Z,88.81
2017-11-25T12:37:20.587Z,88.34
2017-11-25T12:37:47.154Z,88.34
2017-11-25T12:38:12.643Z,88.24
2017-11-25T12:38:38.132Z,88.24
2017-11-25T12:39:03.661Z,88.24
2017-11-25T12:39:29.135Z,88.24
2017-11-25T12:39:54.825Z,88.62
2017-11-25T12:40:20.487Z,88.39
2017-11-25T12:40:46.045Z,88.24
2017-11-25T12:41:11.519Z,88.57
2017-11-25T12:41:37.211Z,88.81
2017-11-25T12:42:02.522Z,88.86
2017-11-25T12:42:28.017Z,88.29
2017-11-25T12:42:53.461Z,88.76
2017-11-25T12:43:18.929Z,88.76
2017-11-25T12:43:44.584Z,88.91
2017-11-25T12:44:10.053Z,88.39
2017-11-25T12:44:35.514Z,88.39
2017-11-25T12:45:01.133Z,88.29
2017-11-25T12:45:26.682Z,88.39
2017-11-25T12:45:52.122Z,88.39
2017-11-25T12:46:17.626Z,88.57
2017-11-25T12:46:43.134Z,88.57
2017-11-25T12:47:08.648Z,89.05
2017-11-25T12:47:34.088Z,88.76
2017-11-25T12:47:59.552Z,88.95
2017-11-25T12:48:25.132Z,88.86
2017-11-25T12:48:50.503Z,88.95
2017-11-25T12:49:15.989Z,88.29
2017-11-25T12:49:41.490Z,88.48
2017-11-25T12:50:06.943Z,88.48
2017-11-25T12:50:32.433Z,88.57
2017-11-25T12:50:58.035Z,88.57
2017-11-25T12:51:23.415Z,88.39
2017-11-25T12:51:48.891Z,88.39
2017-11-25T12:52:14.439Z,88.01
2017-11-25T12:52:39.878Z,88.01
2017-11-25T12:53:05.389Z,88.29
2017-11-25T12:53:30.891Z,87.72
2017-11-25T12:53:56.376Z,87.72
2017-11-25T12:54:21.862Z,88.01
2017-11-25T12:54:47.356Z,88.01
2017-11-25T12:55:12.843Z,88.1
2017-11-25T12:55:38.297Z,88.29
2017-11-25T12:56:03.768Z,88.39
2017-11-25T12:56:29.243Z,88.39
2017-11-25T12:56:54.717Z,88.2
2017-11-25T12:57:20.242Z,88.1
2017-11-25T12:57:45.662Z,88.1
2017-11-25T12:58:11.169Z,88.39
2017-11-25T12:58:36.633Z,87.72
2017-11-25T12:59:02.113Z,87.91
2017-11-25T12:59:27.553Z,87.43
2017-11-25T12:59:53.076Z,87.43
2017-11-25T13:00:18.555Z,87.82
2017-11-25T13:00:44.022Z,87.62
2017-11-25T13:01:09.481Z,87.62
2017-11-25T13:01:34.966Z,87.53
2017-11-25T13:02:00.443Z,87.72
2017-11-25T13:02:25.932Z,87.62
2017-11-25T13:02:51.475Z,87.62
2017-11-25T13:03:16.888Z,87.72
2017-11-25T13:03:42.363Z,87.72
2017-11-25T13:04:07.802Z,87.53
2017-11-25T13:04:33.293Z,88.39
2017-11-25T13:04:58.731Z,88.39
2017-11-25T13:05:24.208Z,88.01
2017-11-25T13:05:49.719Z,88.2
2017-11-25T13:06:58.430Z,87.53
2017-11-25T13:07:23.930Z,87.72
2017-11-25T13:07:49.385Z,87.91
2017-11-25T13:08:14.843Z,87.34
2017-11-25T13:08:40.303Z,87.53
2017-11-25T13:09:05.805Z,87.72
2017-11-25T13:09:31.245Z,87.72
2017-11-25T13:09:56.705Z,87.82
2017-11-25T13:10:22.151Z,87.62
2017-11-25T13:10:47.625Z,87.62
2017-11-25T13:11:13.094Z,87.43
2017-11-25T13:11:38.551Z,87.72
2017-11-25T13:12:04.068Z,88.1
2017-11-25T13:12:29.522Z,88.1
2017-11-25T13:12:54.969Z,88.01
2017-11-25T13:13:20.433Z,87.62
2017-11-25T13:13:45.903Z,87.62
2017-11-25T13:14:11.379Z,87.82
2017-11-25T13:14:36.846Z,87.34
2017-11-25T13:15:02.343Z,87.62
2017-11-25T13:15:27.783Z,87.43
2017-11-25T13:15:53.254Z,87.34
2017-11-25T13:16:18.720Z,87.91
2017-11-25T13:16:44.199Z,87.53
2017-11-25T13:17:09.653Z,88.2
2017-11-25T13:17:35.119Z,88.57
2017-11-25T13:18:00.598Z,88.57
2017-11-25T13:18:26.067Z,88.48
2017-11-25T13:18:51.549Z,88.1
2017-11-25T13:19:16.995Z,88.2
2017-11-25T13:19:42.440Z,88.39
2017-11-25T13:20:07.975Z,88.2
2017-11-25T13:20:33.483Z,88.57
2017-11-25T13:20:58.920Z,88.05
2017-11-25T13:21:24.412Z,88.24
2017-11-25T13:21:49.891Z,88.43
2017-11-25T13:22:15.374Z,88.43
2017-11-25T13:22:40.853Z,88.34
2017-11-25T13:23:06.336Z,87.57
2017-11-25T13:23:31.792Z,88.2
2017-11-25T13:23:57.248Z,88.39
2017-11-25T13:24:22.788Z,87.57
2017-11-25T13:24:48.263Z,87.86
2017-11-25T13:25:13.767Z,87.86
2017-11-25T13:25:39.349Z,87.86
2017-11-25T13:26:04.883Z,87.67
2017-11-25T13:26:30.309Z,87.67
2017-11-25T13:26:55.805Z,87.57
2017-11-25T13:27:21.282Z,87.76
2017-11-25T13:27:46.862Z,87.76
2017-11-25T13:28:12.353Z,87.95
2017-11-25T13:28:37.813Z,88.15
2017-11-25T13:29:03.295Z,88.15
2017-11-25T13:29:28.776Z,88.34
2017-11-25T13:29:54.275Z,88.43
2017-11-25T13:30:19.786Z,88.24
2017-11-25T13:30:45.282Z,88.24
2017-11-25T13:31:10.753Z,87.67
2017-11-25T13:31:36.203Z,87.86
2017-11-25T13:32:01.718Z,87.67
2017-11-25T13:32:27.226Z,87.86
2017-11-25T13:32:52.666Z,87.86
2017-11-25T13:33:18.151Z,87.86
2017-11-25T13:33:43.654Z,87.76
2017-11-25T13:34:09.113Z,87.86
2017-11-25T13:34:34.594Z,88.05
2017-11-25T13:35:00.069Z,87.95
2017-11-25T13:35:25.548Z,88.05
2017-11-25T13:35:51.025Z,87.76
2017-11-25T13:36:16.599Z,87.57
2017-11-25T13:36:42.053Z,87.76
2017-11-25T13:37:07.554Z,87.86
2017-11-25T13:37:33.060Z,87.82
2017-11-25T13:37:58.526Z,87.76
2017-11-25T13:38:24.041Z,88.05
2017-11-25T13:39:17.503Z,87.38
2017-11-25T13:39:42.981Z,87.24
2017-11-25T13:40:08.466Z,87.48
2017-11-25T13:40:33.942Z,87.38
2017-11-25T13:40:59.425Z,87.19
2017-11-25T13:41:24.915Z,87.29
2017-11-25T13:41:50.434Z,87.53
2017-11-25T13:42:15.886Z,87.62
2017-11-25T13:42:41.363Z,87.34
2017-11-25T13:43:06.857Z,87.82
2017-11-25T13:43:32.336Z,87.62
2017-11-25T13:43:57.809Z,87.53
2017-11-25T13:44:23.304Z,87.62
2017-11-25T13:44:48.818Z,87.62
2017-11-25T13:45:14.272Z,88.2
2017-11-25T13:45:39.726Z,88.29
2017-11-25T13:46:05.171Z,88.2
2017-11-25T13:46:30.661Z,88.2
2017-11-25T13:46:56.153Z,88.39
2017-11-25T13:47:21.596Z,88.39
2017-11-25T13:47:47.031Z,88.29
2017-11-25T13:48:12.547Z,88.29
2017-11-25T13:48:37.964Z,88.39
2017-11-25T13:49:03.443Z,88.39
2017-11-25T13:49:28.936Z,88.86
2017-11-25T13:49:54.377Z,89.33
2017-11-25T13:50:19.843Z,89.24
2017-11-25T13:50:45.298Z,88.95
2017-11-25T13:51:10.754Z,88.86
2017-11-25T13:51:36.242Z,89.24
2017-11-25T13:52:01.683Z,89.62
2017-11-25T13:52:27.158Z,89.62
2017-11-25T13:52:52.619Z,89.43
2017-11-25T13:53:18.111Z,89.43
2017-11-25T13:53:43.614Z,89.62
2017-11-25T13:54:09.077Z,89.62
2017-11-25T13:54:34.606Z,89.53
2017-11-25T13:55:00.042Z,89.53
2017-11-25T13:55:25.603Z,89.72
2017-11-25T13:55:51.061Z,89.62
2017-11-25T13:56:16.523Z,90
2017-11-25T13:56:42.048Z,89.81
2017-11-25T13:57:07.493Z,90
2017-11-25T13:57:32.993Z,90.09
2017-11-25T13:57:58.422Z,90.09
2017-11-25T13:58:23.918Z,89.9
2017-11-25T13:58:49.416Z,90.09
2017-11-25T13:59:14.898Z,89.81
2017-11-25T13:59:40.367Z,89.81
2017-11-25T14:00:05.853Z,89.9
2017-11-25T14:00:31.334Z,90.66
2017-11-25T14:00:56.804Z,90.57
2017-11-25T14:01:22.303Z,90.28
2017-11-25T14:01:47.792Z,90.28
2017-11-25T14:02:13.219Z,89.72
2017-11-25T14:02:38.692Z,90.66
2017-11-25T14:03:04.190Z,90.47
2017-11-25T14:03:29.662Z,90.66
2017-11-25T14:03:55.154Z,90.28
2017-11-25T14:04:20.647Z,90.09
2017-11-25T14:04:46.142Z,90.09
2017-11-25T14:05:11.642Z,90.28
2017-11-25T14:05:37.123Z,90.38
2017-11-25T14:06:02.595Z,90.28
2017-11-25T14:06:28.122Z,90.28
2017-11-25T14:06:53.602Z,90.38
2017-11-25T14:08:07.433Z,90.57
2017-11-25T14:08:32.916Z,90.57
2017-11-25T14:08:58.397Z,90.38
2017-11-25T14:09:23.868Z,90.47
2017-11-25T14:09:49.397Z,90.57
2017-11-25T14:10:14.859Z,90.38
2017-11-25T14:10:40.366Z,90.57
2017-11-25T14:11:05.885Z,90.47
2017-11-25T14:11:31.384Z,90.57
2017-11-25T14:11:56.851Z,90.66
2017-11-25T14:12:22.273Z,90.66
2017-11-25T14:12:47.872Z,90.76
2017-11-25T14:13:13.428Z,90.38
2017-11-25T14:13:38.834Z,90.28
2017-11-25T14:14:04.365Z,90.57
2017-11-25T14:14:29.772Z,90.28
2017-11-25T14:14:55.286Z,90.76
2017-11-25T14:15:20.741Z,90.38
2017-11-25T14:15:46.209Z,90.66
2017-11-25T14:16:11.653Z,90.85
2017-11-25T14:16:37.208Z,90.76
2017-11-25T14:17:02.670Z,90.66
2017-11-25T14:17:28.122Z,90.76
2017-11-25T14:17:53.610Z,90.66
2017-11-25T14:18:19.096Z,90.66
2017-11-25T14:18:44.574Z,90.47
2017-11-25T14:19:10.041Z,90.57
2017-11-25T14:19:35.515Z,90.95
2017-11-25T14:20:01.025Z,90.47
2017-11-25T14:20:26.440Z,90.85
2017-11-25T14:20:51.984Z,91.04
2017-11-25T14:21:17.455Z,90.95
2017-11-25T14:21:42.937Z,91.04
2017-11-25T14:22:08.416Z,91.04
2017-11-25T14:22:33.919Z,90.85
2017-11-25T14:22:59.387Z,91.04
2017-11-25T14:23:24.869Z,91.04
2017-11-25T14:23:50.375Z,90.95
2017-11-25T14:24:15.892Z,91.14
2017-11-25T14:24:41.383Z,91.14
2017-11-25T14:25:06.871Z,90.95
2017-11-25T14:25:32.298Z,91.42
2017-11-25T14:25:57.807Z,91.52
2017-11-25T14:26:23.313Z,91.04
2017-11-25T14:26:48.758Z,91.61
2017-11-25T14:27:14.301Z,91.42
2017-11-25T14:27:39.757Z,91.42
2017-11-25T14:28:05.244Z,91.47
2017-11-25T14:28:30.706Z,91.42
2017-11-25T14:28:56.154Z,91.52
2017-11-25T14:29:21.715Z,91.52
2017-11-25T14:29:47.150Z,91.42
2017-11-25T14:30:12.643Z,91.61
2017-11-25T14:30:38.219Z,91.61
2017-11-25T14:31:03.679Z,91.42
2017-11-25T14:31:29.124Z,91.24
2017-11-25T14:31:54.552Z,91.24
2017-11-25T14:32:20.026Z,90.95
2017-11-25T14:32:45.492Z,90.95
2017-11-25T14:33:10.975Z,91.24
2017-11-25T14:33:36.532Z,91.19
2017-11-25T14:34:01.975Z,91.14
2017-11-25T14:34:27.445Z,90.9
2017-11-25T14:34:52.938Z,91.14
2017-11-25T14:35:18.358Z,90.95
2017-11-25T14:35:43.851Z,91.28
2017-11-25T14:36:09.413Z,90.9
2017-11-25T14:36:34.860Z,91.09
2017-11-25T14:37:00.497Z,91.09
2017-11-25T14:37:25.928Z,90.9
2017-11-25T14:37:51.402Z,91
2017-11-25T14:38:16.940Z,91.19
2017-11-25T14:38:42.337Z,91
2017-11-25T14:39:07.836Z,90.9
2017-11-25T14:39:33.294Z,91
2017-11-25T14:39:58.766Z,90.71
2017-11-25T14:40:24.272Z,91
2017-11-25T14:40:49.717Z,91.09
2017-11-25T14:41:15.198Z,91.19
2017-11-25T14:41:40.629Z,91
2017-11-25T14:42:06.124Z,91.09
2017-11-25T14:42:31.652Z,91.28
2017-11-25T14:42:57.134Z,91.19
2017-11-25T14:43:22.641Z,91.56
2017-11-25T14:43:48.128Z,91.47
2017-11-25T14:44:13.644Z,91.47
2017-11-25T14:44:39.147Z,91.56
2017-11-25T14:45:04.640Z,91
2017-11-25T14:45:30.116Z,91.19
2017-11-25T14:45:55.597Z,91.94
2017-11-25T14:46:21.088Z,91.66
2017-11-25T14:46:46.617Z,91.66
2017-11-25T14:47:12.137Z,91.66
2017-11-25T14:47:37.628Z,91.75
2017-11-25T14:48:03.133Z,91.85
2017-11-25T14:48:28.632Z,91.75
2017-11-25T14:48:54.102Z,92.14
2017-11-25T14:49:19.604Z,91.66
2017-11-25T14:49:45.105Z,92.14
2017-11-25T14:50:10.612Z,92.14
2017-11-25T14:50:36.126Z,92.42
2017-11-25T14:51:01.554Z,92.14
2017-11-25T14:51:27.105Z,92.33
2017-11-25T14:51:52.619Z,92.14
2017-11-25T14:52:18.082Z,92.04
2017-11-25T14:52:43.599Z,92.14
2017-11-25T14:53:09.131Z,92.33
2017-11-25T14:53:34.586Z,92.61
2017-11-25T14:54:00.150Z,92.23
2017-11-25T14:54:25.671Z,91.94
2017-11-25T14:54:51.172Z,92.23
2017-11-25T14:55:16.642Z,92.14
2017-11-25T14:55:42.158Z,92.23
2017-11-25T14:56:07.678Z,92.61
2017-11-25T14:56:33.214Z,92.61
2017-11-25T14:56:58.687Z,92.61
2017-11-25T14:57:24.195Z,92.52
2017-11-25T14:58:38.040Z,93.18
2017-11-25T14:59:03.596Z,93.08
2017-11-25T14:59:29.086Z,92.99
2017-11-25T14:59:54.559Z,93.08
2017-11-25T15:00:20.077Z,92.8
2017-11-25T15:00:45.568Z,92.8
2017-11-25T15:01:11.048Z,92.8
2017-11-25T15:01:36.560Z,92.8
2017-11-25T15:02:02.080Z,93.27
2017-11-25T15:02:27.537Z,93.27
2017-11-25T15:02:53.032Z,93.18
2017-11-25T15:03:18.529Z,93.27
2017-11-25T15:03:44.080Z,93.27
2017-11-25T15:04:09.520Z,93.27
2017-11-25T15:04:35.054Z,93.27
2017-11-25T15:05:00.525Z,92.99
2017-11-25T15:05:26.010Z,92.99
2017-11-25T15:05:51.497Z,93.08
2017-11-25T15:06:17.018Z,93.08
2017-11-25T15:06:42.544Z,92.8
2017-11-25T15:07:08.062Z,92.99
2017-11-25T15:07:33.555Z,93.56
2017-11-25T15:07:59.037Z,93.37
2017-11-25T15:08:24.532Z,93.56
2017-11-25T15:08:50.040Z,93.37
2017-11-25T15:09:15.500Z,94.03
2017-11-25T15:09:41.004Z,94.13
2017-11-25T15:10:06.476Z,93.75
2017-11-25T15:10:31.978Z,94.03
2017-11-25T15:10:57.452Z,93.65
2017-11-25T15:11:22.959Z,93.75
2017-11-25T15:11:48.473Z,93.65
2017-11-25T15:12:13.944Z,94.32
2017-11-25T15:12:39.474Z,94.13
2017-11-25T15:13:04.945Z,94.23
2017-11-25T15:13:30.398Z,93.65
2017-11-25T15:13:55.907Z,93.94
2017-11-25T15:14:21.389Z,94.51
2017-11-25T15:14:46.891Z,94.03
2017-11-25T15:15:12.384Z,94.23
2017-11-25T15:15:37.844Z,94.13
2017-11-25T15:16:03.345Z,94.79
2017-11-25T15:16:28.886Z,94.51
2017-11-25T15:16:54.375Z,94.51
2017-11-25T15:17:19.838Z,95.07
2017-11-25T15:17:45.337Z,94.7
2017-11-25T15:18:10.847Z,94.79
2017-11-25T15:18:36.346Z,94.51
2017-11-25T15:19:01.862Z,94.6
2017-11-25T15:19:27.379Z,94.6
2017-11-25T15:19:52.881Z,94.89
2017-11-25T15:20:18.374Z,94.42
2017-11-25T15:20:43.852Z,94.51
2017-11-25T15:21:09.322Z,94.51
2017-11-25T15:21:34.864Z,94.51
2017-11-25T15:22:00.339Z,94.79
2017-11-25T15:22:25.829Z,95.27